sensor_id;sensor_type;location;lat;lon;timestamp;temperature;humidity
60909;DHT22;46780;48.128;-1.704;2022-08-19T00:00:32;21.40;77.10
60909;DHT22;46780;48.128;-1.704;2022-08-19T00:02:59;21.40;78.00
60909;DHT22;46780;48.128;-1.704;2022-08-19T00:05:25;21.40;78.10
60909;DHT22;46780;48.128;-1.704;2022-08-19T00:07:53;21.30;78.00
60909;DHT22;46780;48.128;-1.704;2022-08-19T00:10:20;21.30;78.30
60909;DHT22;46780;48.128;-1.704;2022-08-19T00:12:47;21.30;78.40
60909;DHT22;46780;48.128;-1.704;2022-08-19T00:15:17;21.30;78.60
60909;DHT22;46780;48.128;-1.704;2022-08-19T00:17:44;21.20;79.00
60909;DHT22;46780;48.128;-1.704;2022-08-19T00:20:19;21.10;79.30
60909;DHT22;46780;48.128;-1.704;2022-08-19T00:22:47;21.10;79.80
60909;DHT22;46780;48.128;-1.704;2022-08-19T00:25:15;21.20;80.60
60909;DHT22;46780;48.128;-1.704;2022-08-19T00:27:42;21.00;80.80
60909;DHT22;46780;48.128;-1.704;2022-08-19T00:30:10;21.00;81.20
60909;DHT22;46780;48.128;-1.704;2022-08-19T00:32:37;20.90;81.60
60909;DHT22;46780;48.128;-1.704;2022-08-19T00:35:04;20.90;82.00
60909;DHT22;46780;48.128;-1.704;2022-08-19T00:37:31;20.90;82.20
60909;DHT22;46780;48.128;-1.704;2022-08-19T00:39:57;20.80;82.40
60909;DHT22;46780;48.128;-1.704;2022-08-19T00:42:25;20.80;82.70
60909;DHT22;46780;48.128;-1.704;2022-08-19T00:44:51;20.80;82.70
60909;DHT22;46780;48.128;-1.704;2022-08-19T00:47:18;20.80;83.00
60909;DHT22;46780;48.128;-1.704;2022-08-19T00:49:47;20.80;83.30
60909;DHT22;46780;48.128;-1.704;2022-08-19T00:52:16;20.80;83.40
60909;DHT22;46780;48.128;-1.704;2022-08-19T00:54:45;20.80;83.50
60909;DHT22;46780;48.128;-1.704;2022-08-19T00:57:14;20.80;83.70
60909;DHT22;46780;48.128;-1.704;2022-08-19T00:59:45;20.80;84.40
60909;DHT22;46780;48.128;-1.704;2022-08-19T01:02:12;20.90;84.30
60909;DHT22;46780;48.128;-1.704;2022-08-19T01:04:40;20.80;84.60
60909;DHT22;46780;48.128;-1.704;2022-08-19T01:07:07;20.80;84.40
60909;DHT22;46780;48.128;-1.704;2022-08-19T01:09:34;20.80;84.70
60909;DHT22;46780;48.128;-1.704;2022-08-19T01:12:01;20.80;85.00
60909;DHT22;46780;48.128;-1.704;2022-08-19T01:14:28;20.80;85.10
60909;DHT22;46780;48.128;-1.704;2022-08-19T01:16:57;20.70;85.30
60909;DHT22;46780;48.128;-1.704;2022-08-19T01:19:27;20.80;85.80
60909;DHT22;46780;48.128;-1.704;2022-08-19T01:21:55;20.70;86.60
60909;DHT22;46780;48.128;-1.704;2022-08-19T01:24:25;20.70;85.70
60909;DHT22;46780;48.128;-1.704;2022-08-19T01:26:52;20.70;86.50
60909;DHT22;46780;48.128;-1.704;2022-08-19T01:29:19;20.70;86.70
60909;DHT22;46780;48.128;-1.704;2022-08-19T01:31:45;20.70;86.90
60909;DHT22;46780;48.128;-1.704;2022-08-19T01:34:12;20.70;87.20
60909;DHT22;46780;48.128;-1.704;2022-08-19T01:36:41;20.70;87.90
60909;DHT22;46780;48.128;-1.704;2022-08-19T01:39:11;20.70;87.70
60909;DHT22;46780;48.128;-1.704;2022-08-19T01:41:39;20.70;88.20
60909;DHT22;46780;48.128;-1.704;2022-08-19T01:44:06;20.70;88.70
60909;DHT22;46780;48.128;-1.704;2022-08-19T01:46:33;20.70;89.10
60909;DHT22;46780;48.128;-1.704;2022-08-19T01:49:00;20.60;89.40
60909;DHT22;46780;48.128;-1.704;2022-08-19T01:51:27;20.60;90.00
60909;DHT22;46780;48.128;-1.704;2022-08-19T01:53:53;20.60;90.10
60909;DHT22;46780;48.128;-1.704;2022-08-19T01:56:20;20.60;90.40
60909;DHT22;46780;48.128;-1.704;2022-08-19T01:58:52;20.60;90.50
60909;DHT22;46780;48.128;-1.704;2022-08-19T02:01:20;20.60;90.40
60909;DHT22;46780;48.128;-1.704;2022-08-19T02:03:46;20.60;90.60
60909;DHT22;46780;48.128;-1.704;2022-08-19T02:06:13;20.60;90.80
60909;DHT22;46780;48.128;-1.704;2022-08-19T02:08:40;20.60;91.00
60909;DHT22;46780;48.128;-1.704;2022-08-19T02:11:07;20.60;91.00
60909;DHT22;46780;48.128;-1.704;2022-08-19T02:13:34;20.60;91.20
60909;DHT22;46780;48.128;-1.704;2022-08-19T02:16:02;20.60;91.30
60909;DHT22;46780;48.128;-1.704;2022-08-19T02:18:29;20.60;91.30
60909;DHT22;46780;48.128;-1.704;2022-08-19T02:20:55;20.60;91.50
60909;DHT22;46780;48.128;-1.704;2022-08-19T02:23:22;20.60;91.50
60909;DHT22;46780;48.128;-1.704;2022-08-19T02:25:48;20.60;91.70
60909;DHT22;46780;48.128;-1.704;2022-08-19T02:28:15;20.60;91.80
60909;DHT22;46780;48.128;-1.704;2022-08-19T02:30:42;20.60;92.00
60909;DHT22;46780;48.128;-1.704;2022-08-19T02:33:10;20.50;92.10
60909;DHT22;46780;48.128;-1.704;2022-08-19T02:35:36;20.50;92.30
60909;DHT22;46780;48.128;-1.704;2022-08-19T02:38:03;20.50;92.50
60909;DHT22;46780;48.128;-1.704;2022-08-19T02:40:30;20.50;92.80
60909;DHT22;46780;48.128;-1.704;2022-08-19T02:42:57;20.50;92.70
60909;DHT22;46780;48.128;-1.704;2022-08-19T02:45:23;20.50;92.90
60909;DHT22;46780;48.128;-1.704;2022-08-19T02:47:50;20.50;92.90
60909;DHT22;46780;48.128;-1.704;2022-08-19T02:50:18;20.50;93.00
60909;DHT22;46780;48.128;-1.704;2022-08-19T02:52:44;20.50;93.10
60909;DHT22;46780;48.128;-1.704;2022-08-19T02:55:11;20.40;93.30
60909;DHT22;46780;48.128;-1.704;2022-08-19T02:57:37;20.40;93.50
60909;DHT22;46780;48.128;-1.704;2022-08-19T03:00:05;20.40;93.60
60909;DHT22;46780;48.128;-1.704;2022-08-19T03:02:32;20.70;94.00
60909;DHT22;46780;48.128;-1.704;2022-08-19T03:04:59;20.40;93.80
60909;DHT22;46780;48.128;-1.704;2022-08-19T03:07:27;20.40;93.90
60909;DHT22;46780;48.128;-1.704;2022-08-19T03:09:53;20.40;94.10
60909;DHT22;46780;48.128;-1.704;2022-08-19T03:12:20;20.40;94.10
60909;DHT22;46780;48.128;-1.704;2022-08-19T03:14:46;20.40;94.20
60909;DHT22;46780;48.128;-1.704;2022-08-19T03:17:13;20.40;94.20
60909;DHT22;46780;48.128;-1.704;2022-08-19T03:19:39;20.40;94.40
60909;DHT22;46780;48.128;-1.704;2022-08-19T03:22:06;20.40;94.50
60909;DHT22;46780;48.128;-1.704;2022-08-19T03:24:34;20.40;94.70
60909;DHT22;46780;48.128;-1.704;2022-08-19T03:27:00;20.40;94.80
60909;DHT22;46780;48.128;-1.704;2022-08-19T03:29:28;20.40;94.90
60909;DHT22;46780;48.128;-1.704;2022-08-19T03:31:55;20.30;95.00
60909;DHT22;46780;48.128;-1.704;2022-08-19T03:34:24;20.30;95.00
60909;DHT22;46780;48.128;-1.704;2022-08-19T03:36:51;20.30;95.10
60909;DHT22;46780;48.128;-1.704;2022-08-19T03:39:18;20.30;95.10
60909;DHT22;46780;48.128;-1.704;2022-08-19T03:41:47;20.30;95.10
60909;DHT22;46780;48.128;-1.704;2022-08-19T03:44:16;20.40;95.20
60909;DHT22;46780;48.128;-1.704;2022-08-19T03:46:42;20.30;95.30
60909;DHT22;46780;48.128;-1.704;2022-08-19T03:49:09;20.40;95.40
60909;DHT22;46780;48.128;-1.704;2022-08-19T03:51:38;20.40;95.50
60909;DHT22;46780;48.128;-1.704;2022-08-19T03:54:07;20.40;95.40
60909;DHT22;46780;48.128;-1.704;2022-08-19T03:56:35;20.40;95.50
60909;DHT22;46780;48.128;-1.704;2022-08-19T03:59:05;20.40;95.80
60909;DHT22;46780;48.128;-1.704;2022-08-19T04:01:31;20.40;96.00
60909;DHT22;46780;48.128;-1.704;2022-08-19T04:03:59;20.30;96.00
60909;DHT22;46780;48.128;-1.704;2022-08-19T04:06:27;20.30;96.10
60909;DHT22;46780;48.128;-1.704;2022-08-19T04:08:55;20.40;96.10
60909;DHT22;46780;48.128;-1.704;2022-08-19T04:11:24;20.30;96.10
60909;DHT22;46780;48.128;-1.704;2022-08-19T04:13:51;20.30;96.30
60909;DHT22;46780;48.128;-1.704;2022-08-19T04:16:21;20.30;96.30
60909;DHT22;46780;48.128;-1.704;2022-08-19T04:18:48;20.30;96.40
60909;DHT22;46780;48.128;-1.704;2022-08-19T04:21:17;20.30;96.70
60909;DHT22;46780;48.128;-1.704;2022-08-19T04:23:45;20.30;96.90
60909;DHT22;46780;48.128;-1.704;2022-08-19T04:26:12;20.30;96.80
60909;DHT22;46780;48.128;-1.704;2022-08-19T04:28:39;20.30;96.80
60909;DHT22;46780;48.128;-1.704;2022-08-19T04:31:05;20.30;96.90
60909;DHT22;46780;48.128;-1.704;2022-08-19T04:33:33;20.40;96.90
60909;DHT22;46780;48.128;-1.704;2022-08-19T04:36:00;20.40;97.00
60909;DHT22;46780;48.128;-1.704;2022-08-19T04:38:26;20.30;97.20
60909;DHT22;46780;48.128;-1.704;2022-08-19T04:40:53;20.30;97.10
60909;DHT22;46780;48.128;-1.704;2022-08-19T04:43:19;20.30;97.20
60909;DHT22;46780;48.128;-1.704;2022-08-19T04:45:46;20.30;97.30
60909;DHT22;46780;48.128;-1.704;2022-08-19T04:48:13;20.40;97.40
60909;DHT22;46780;48.128;-1.704;2022-08-19T04:50:42;20.40;97.60
60909;DHT22;46780;48.128;-1.704;2022-08-19T04:53:09;20.50;97.70
60909;DHT22;46780;48.128;-1.704;2022-08-19T04:55:39;20.40;97.70
60909;DHT22;46780;48.128;-1.704;2022-08-19T04:58:06;20.50;97.60
60909;DHT22;46780;48.128;-1.704;2022-08-19T05:00:33;20.40;97.50
60909;DHT22;46780;48.128;-1.704;2022-08-19T05:02:59;20.40;97.80
60909;DHT22;46780;48.128;-1.704;2022-08-19T05:05:26;20.40;97.80
60909;DHT22;46780;48.128;-1.704;2022-08-19T05:07:54;20.70;98.20
60909;DHT22;46780;48.128;-1.704;2022-08-19T05:10:21;20.40;98.40
60909;DHT22;46780;48.128;-1.704;2022-08-19T05:12:48;20.50;98.40
60909;DHT22;46780;48.128;-1.704;2022-08-19T05:15:15;20.30;98.60
60909;DHT22;46780;48.128;-1.704;2022-08-19T05:17:41;20.40;98.70
60909;DHT22;46780;48.128;-1.704;2022-08-19T05:20:09;20.30;98.90
60909;DHT22;46780;48.128;-1.704;2022-08-19T05:22:36;20.40;98.70
60909;DHT22;46780;48.128;-1.704;2022-08-19T05:25:07;20.30;98.90
60909;DHT22;46780;48.128;-1.704;2022-08-19T05:27:34;20.40;98.90
60909;DHT22;46780;48.128;-1.704;2022-08-19T05:30:01;20.30;99.10
60909;DHT22;46780;48.128;-1.704;2022-08-19T05:32:28;20.30;99.00
60909;DHT22;46780;48.128;-1.704;2022-08-19T05:34:54;20.40;99.00
60909;DHT22;46780;48.128;-1.704;2022-08-19T05:37:21;20.40;99.20
60909;DHT22;46780;48.128;-1.704;2022-08-19T05:39:48;20.30;99.20
60909;DHT22;46780;48.128;-1.704;2022-08-19T05:42:16;20.50;99.40
60909;DHT22;46780;48.128;-1.704;2022-08-19T05:44:43;20.30;99.10
60909;DHT22;46780;48.128;-1.704;2022-08-19T05:47:11;20.20;99.20
60909;DHT22;46780;48.128;-1.704;2022-08-19T05:49:38;20.30;99.30
60909;DHT22;46780;48.128;-1.704;2022-08-19T05:52:06;20.20;99.30
60909;DHT22;46780;48.128;-1.704;2022-08-19T05:54:33;20.20;99.60
60909;DHT22;46780;48.128;-1.704;2022-08-19T05:57:00;20.20;99.50
60909;DHT22;46780;48.128;-1.704;2022-08-19T05:59:29;20.10;99.40
60909;DHT22;46780;48.128;-1.704;2022-08-19T06:01:55;20.20;99.50
60909;DHT22;46780;48.128;-1.704;2022-08-19T06:04:22;20.20;99.60
60909;DHT22;46780;48.128;-1.704;2022-08-19T06:06:51;20.10;99.60
60909;DHT22;46780;48.128;-1.704;2022-08-19T06:09:18;20.20;99.70
60909;DHT22;46780;48.128;-1.704;2022-08-19T06:11:47;20.20;99.70
60909;DHT22;46780;48.128;-1.704;2022-08-19T06:14:16;20.20;99.70
60909;DHT22;46780;48.128;-1.704;2022-08-19T06:16:45;20.40;99.70
60909;DHT22;46780;48.128;-1.704;2022-08-19T06:19:13;20.20;99.50
60909;DHT22;46780;48.128;-1.704;2022-08-19T06:21:41;20.30;99.60
60909;DHT22;46780;48.128;-1.704;2022-08-19T06:24:10;20.20;99.60
60909;DHT22;46780;48.128;-1.704;2022-08-19T06:26:39;20.30;99.60
60909;DHT22;46780;48.128;-1.704;2022-08-19T06:29:08;20.20;99.60
60909;DHT22;46780;48.128;-1.704;2022-08-19T06:31:36;20.30;99.70
60909;DHT22;46780;48.128;-1.704;2022-08-19T06:34:05;20.30;99.70
60909;DHT22;46780;48.128;-1.704;2022-08-19T06:36:35;20.30;99.50
60909;DHT22;46780;48.128;-1.704;2022-08-19T06:39:03;20.30;99.60
60909;DHT22;46780;48.128;-1.704;2022-08-19T06:41:30;20.40;99.60
60909;DHT22;46780;48.128;-1.704;2022-08-19T06:43:57;20.30;99.60
60909;DHT22;46780;48.128;-1.704;2022-08-19T06:46:24;20.40;99.60
60909;DHT22;46780;48.128;-1.704;2022-08-19T06:48:50;20.40;99.80
60909;DHT22;46780;48.128;-1.704;2022-08-19T06:51:18;20.40;99.80
60909;DHT22;46780;48.128;-1.704;2022-08-19T06:53:46;20.50;99.90
60909;DHT22;46780;48.128;-1.704;2022-08-19T06:56:13;20.40;99.70
60909;DHT22;46780;48.128;-1.704;2022-08-19T06:58:40;20.30;99.70
60909;DHT22;46780;48.128;-1.704;2022-08-19T07:01:07;20.40;99.90
60909;DHT22;46780;48.128;-1.704;2022-08-19T07:03:35;20.50;99.90
60909;DHT22;46780;48.128;-1.704;2022-08-19T07:06:03;20.30;99.90
60909;DHT22;46780;48.128;-1.704;2022-08-19T07:08:32;20.30;99.90
60909;DHT22;46780;48.128;-1.704;2022-08-19T07:10:59;20.30;99.90
60909;DHT22;46780;48.128;-1.704;2022-08-19T07:13:26;20.30;99.90
60909;DHT22;46780;48.128;-1.704;2022-08-19T07:15:52;20.40;99.90
60909;DHT22;46780;48.128;-1.704;2022-08-19T07:18:19;20.30;99.90
60909;DHT22;46780;48.128;-1.704;2022-08-19T07:20:46;20.30;99.90
60909;DHT22;46780;48.128;-1.704;2022-08-19T07:23:13;20.30;99.90
60909;DHT22;46780;48.128;-1.704;2022-08-19T07:25:41;20.40;99.90
60909;DHT22;46780;48.128;-1.704;2022-08-19T07:28:08;20.40;99.90
60909;DHT22;46780;48.128;-1.704;2022-08-19T07:30:36;20.50;99.90
60909;DHT22;46780;48.128;-1.704;2022-08-19T07:33:03;20.50;99.90
60909;DHT22;46780;48.128;-1.704;2022-08-19T07:35:30;20.60;99.90
60909;DHT22;46780;48.128;-1.704;2022-08-19T07:37:56;20.60;99.80
60909;DHT22;46780;48.128;-1.704;2022-08-19T07:40:23;20.60;99.90
60909;DHT22;46780;48.128;-1.704;2022-08-19T07:42:51;20.50;99.70
60909;DHT22;46780;48.128;-1.704;2022-08-19T07:45:17;20.50;99.50
60909;DHT22;46780;48.128;-1.704;2022-08-19T07:47:44;20.50;99.40
60909;DHT22;46780;48.128;-1.704;2022-08-19T07:50:11;20.50;99.40
60909;DHT22;46780;48.128;-1.704;2022-08-19T07:52:38;20.50;99.50
60909;DHT22;46780;48.128;-1.704;2022-08-19T07:55:07;20.50;99.60
60909;DHT22;46780;48.128;-1.704;2022-08-19T07:57:34;20.60;99.70
60909;DHT22;46780;48.128;-1.704;2022-08-19T08:00:04;20.60;99.60
60909;DHT22;46780;48.128;-1.704;2022-08-19T08:02:30;20.70;99.50
60909;DHT22;46780;48.128;-1.704;2022-08-19T08:04:57;20.70;99.40
60909;DHT22;46780;48.128;-1.704;2022-08-19T08:07:23;20.70;98.90
60909;DHT22;46780;48.128;-1.704;2022-08-19T08:09:50;20.80;98.60
60909;DHT22;46780;48.128;-1.704;2022-08-19T08:12:20;20.90;98.70
60909;DHT22;46780;48.128;-1.704;2022-08-19T08:14:50;20.90;98.60
60909;DHT22;46780;48.128;-1.704;2022-08-19T08:17:22;21.10;98.40
60909;DHT22;46780;48.128;-1.704;2022-08-19T08:19:49;21.10;98.10
60909;DHT22;46780;48.128;-1.704;2022-08-19T08:22:18;21.10;98.10
60909;DHT22;46780;48.128;-1.704;2022-08-19T08:24:45;21.20;97.80
60909;DHT22;46780;48.128;-1.704;2022-08-19T08:27:11;21.50;97.20
60909;DHT22;46780;48.128;-1.704;2022-08-19T08:29:38;21.50;96.80
60909;DHT22;46780;48.128;-1.704;2022-08-19T08:32:04;21.50;96.10
60909;DHT22;46780;48.128;-1.704;2022-08-19T08:34:32;22.00;96.10
60909;DHT22;46780;48.128;-1.704;2022-08-19T08:36:59;21.80;95.60
60909;DHT22;46780;48.128;-1.704;2022-08-19T08:39:25;21.80;94.60
60909;DHT22;46780;48.128;-1.704;2022-08-19T08:41:56;21.90;94.40
60909;DHT22;46780;48.128;-1.704;2022-08-19T08:44:33;21.90;94.10
60909;DHT22;46780;48.128;-1.704;2022-08-19T08:47:12;21.90;94.00
60909;DHT22;46780;48.128;-1.704;2022-08-19T08:49:45;21.90;94.00
60909;DHT22;46780;48.128;-1.704;2022-08-19T08:52:17;22.00;93.40
60909;DHT22;46780;48.128;-1.704;2022-08-19T08:54:47;22.00;93.40
60909;DHT22;46780;48.128;-1.704;2022-08-19T08:57:19;22.20;93.80
60909;DHT22;46780;48.128;-1.704;2022-08-19T08:59:48;22.30;93.30
60909;DHT22;46780;48.128;-1.704;2022-08-19T09:02:15;22.50;92.80
60909;DHT22;46780;48.128;-1.704;2022-08-19T09:04:43;22.60;92.20
60909;DHT22;46780;48.128;-1.704;2022-08-19T09:07:21;22.70;91.90
60909;DHT22;46780;48.128;-1.704;2022-08-19T09:09:50;22.90;91.30
60909;DHT22;46780;48.128;-1.704;2022-08-19T09:12:31;22.90;90.70
60909;DHT22;46780;48.128;-1.704;2022-08-19T09:15:05;22.90;90.20
60909;DHT22;46780;48.128;-1.704;2022-08-19T09:17:32;22.80;90.20
60909;DHT22;46780;48.128;-1.704;2022-08-19T09:20:04;22.70;90.40
60909;DHT22;46780;48.128;-1.704;2022-08-19T09:22:31;22.60;90.60
60909;DHT22;46780;48.128;-1.704;2022-08-19T09:24:58;22.50;90.80
60909;DHT22;46780;48.128;-1.704;2022-08-19T09:27:26;22.40;91.10
60909;DHT22;46780;48.128;-1.704;2022-08-19T09:29:53;22.40;91.40
60909;DHT22;46780;48.128;-1.704;2022-08-19T09:32:20;22.40;91.60
60909;DHT22;46780;48.128;-1.704;2022-08-19T09:34:47;22.30;91.60
60909;DHT22;46780;48.128;-1.704;2022-08-19T09:37:15;22.40;91.90
60909;DHT22;46780;48.128;-1.704;2022-08-19T09:39:41;22.30;91.70
60909;DHT22;46780;48.128;-1.704;2022-08-19T09:42:08;22.30;91.70
60909;DHT22;46780;48.128;-1.704;2022-08-19T09:44:34;22.20;91.70
60909;DHT22;46780;48.128;-1.704;2022-08-19T09:47:01;22.30;92.00
60909;DHT22;46780;48.128;-1.704;2022-08-19T09:49:27;22.20;92.10
60909;DHT22;46780;48.128;-1.704;2022-08-19T09:51:54;22.30;92.30
60909;DHT22;46780;48.128;-1.704;2022-08-19T09:54:22;22.30;92.20
60909;DHT22;46780;48.128;-1.704;2022-08-19T09:56:49;22.30;92.30
60909;DHT22;46780;48.128;-1.704;2022-08-19T09:59:16;22.40;91.90
60909;DHT22;46780;48.128;-1.704;2022-08-19T10:01:42;22.40;91.80
60909;DHT22;46780;48.128;-1.704;2022-08-19T10:04:09;22.30;91.70
60909;DHT22;46780;48.128;-1.704;2022-08-19T10:06:38;22.40;92.10
60909;DHT22;46780;48.128;-1.704;2022-08-19T10:09:06;22.50;92.10
60909;DHT22;46780;48.128;-1.704;2022-08-19T10:11:35;22.50;92.00
60909;DHT22;46780;48.128;-1.704;2022-08-19T10:14:02;22.60;91.80
60909;DHT22;46780;48.128;-1.704;2022-08-19T10:16:28;22.60;91.60
60909;DHT22;46780;48.128;-1.704;2022-08-19T10:18:55;22.60;91.90
60909;DHT22;46780;48.128;-1.704;2022-08-19T10:21:24;22.60;92.30
60909;DHT22;46780;48.128;-1.704;2022-08-19T10:23:52;22.60;92.40
60909;DHT22;46780;48.128;-1.704;2022-08-19T10:26:21;22.50;92.40
60909;DHT22;46780;48.128;-1.704;2022-08-19T10:28:50;22.40;92.70
60909;DHT22;46780;48.128;-1.704;2022-08-19T10:31:18;22.50;92.80
60909;DHT22;46780;48.128;-1.704;2022-08-19T10:33:46;22.50;92.70
60909;DHT22;46780;48.128;-1.704;2022-08-19T10:36:15;22.50;92.70
60909;DHT22;46780;48.128;-1.704;2022-08-19T10:38:43;22.50;92.90
60909;DHT22;46780;48.128;-1.704;2022-08-19T10:41:12;22.60;92.00
60909;DHT22;46780;48.128;-1.704;2022-08-19T10:43:40;22.60;91.90
60909;DHT22;46780;48.128;-1.704;2022-08-19T10:46:09;22.50;91.80
60909;DHT22;46780;48.128;-1.704;2022-08-19T10:48:36;22.50;92.20
60909;DHT22;46780;48.128;-1.704;2022-08-19T10:51:04;22.50;92.10
60909;DHT22;46780;48.128;-1.704;2022-08-19T10:53:30;22.50;92.40
60909;DHT22;46780;48.128;-1.704;2022-08-19T10:55:57;22.50;92.20
60909;DHT22;46780;48.128;-1.704;2022-08-19T10:58:24;22.50;92.00
60909;DHT22;46780;48.128;-1.704;2022-08-19T11:00:54;22.30;92.00
60909;DHT22;46780;48.128;-1.704;2022-08-19T11:03:23;22.50;92.20
60909;DHT22;46780;48.128;-1.704;2022-08-19T11:05:58;22.50;92.20
60909;DHT22;46780;48.128;-1.704;2022-08-19T11:08:25;22.50;92.10
60909;DHT22;46780;48.128;-1.704;2022-08-19T11:10:52;22.60;93.00
60909;DHT22;46780;48.128;-1.704;2022-08-19T11:13:19;22.50;93.00
60909;DHT22;46780;48.128;-1.704;2022-08-19T11:15:46;22.60;93.10
60909;DHT22;46780;48.128;-1.704;2022-08-19T11:18:13;22.60;93.10
60909;DHT22;46780;48.128;-1.704;2022-08-19T11:20:40;22.60;93.20
60909;DHT22;46780;48.128;-1.704;2022-08-19T11:23:07;22.60;93.20
60909;DHT22;46780;48.128;-1.704;2022-08-19T11:25:33;22.70;93.00
60909;DHT22;46780;48.128;-1.704;2022-08-19T11:28:00;22.70;92.80
60909;DHT22;46780;48.128;-1.704;2022-08-19T11:30:27;22.70;92.70
60909;DHT22;46780;48.128;-1.704;2022-08-19T11:32:53;22.70;93.00
60909;DHT22;46780;48.128;-1.704;2022-08-19T11:35:19;22.70;92.50
60909;DHT22;46780;48.128;-1.704;2022-08-19T11:37:47;22.80;92.50
60909;DHT22;46780;48.128;-1.704;2022-08-19T11:40:14;22.80;92.10
60909;DHT22;46780;48.128;-1.704;2022-08-19T11:42:40;22.90;92.10
60909;DHT22;46780;48.128;-1.704;2022-08-19T11:45:08;22.90;91.50
60909;DHT22;46780;48.128;-1.704;2022-08-19T11:47:34;23.00;91.10
60909;DHT22;46780;48.128;-1.704;2022-08-19T11:50:01;23.00;90.80
60909;DHT22;46780;48.128;-1.704;2022-08-19T11:52:27;23.00;90.60
60909;DHT22;46780;48.128;-1.704;2022-08-19T11:54:55;23.10;90.10
60909;DHT22;46780;48.128;-1.704;2022-08-19T11:57:21;23.20;90.00
60909;DHT22;46780;48.128;-1.704;2022-08-19T11:59:49;23.10;88.10
60909;DHT22;46780;48.128;-1.704;2022-08-19T12:02:15;23.10;87.00
60909;DHT22;46780;48.128;-1.704;2022-08-19T12:04:42;23.00;87.40
60909;DHT22;46780;48.128;-1.704;2022-08-19T12:07:08;22.90;88.70
60909;DHT22;46780;48.128;-1.704;2022-08-19T12:09:35;22.90;90.10
60909;DHT22;46780;48.128;-1.704;2022-08-19T12:12:03;22.80;90.50
60909;DHT22;46780;48.128;-1.704;2022-08-19T12:14:30;22.60;91.00
60909;DHT22;46780;48.128;-1.704;2022-08-19T12:16:56;22.60;91.60
60909;DHT22;46780;48.128;-1.704;2022-08-19T12:19:23;22.70;92.20
60909;DHT22;46780;48.128;-1.704;2022-08-19T12:21:51;22.40;92.30
60909;DHT22;46780;48.128;-1.704;2022-08-19T12:24:17;22.40;92.80
60909;DHT22;46780;48.128;-1.704;2022-08-19T12:26:44;22.40;93.10
60909;DHT22;46780;48.128;-1.704;2022-08-19T12:29:12;22.40;93.40
60909;DHT22;46780;48.128;-1.704;2022-08-19T12:31:39;22.40;93.30
60909;DHT22;46780;48.128;-1.704;2022-08-19T12:34:06;22.50;93.40
60909;DHT22;46780;48.128;-1.704;2022-08-19T12:36:32;22.50;93.30
60909;DHT22;46780;48.128;-1.704;2022-08-19T12:38:59;22.50;92.90
60909;DHT22;46780;48.128;-1.704;2022-08-19T12:41:26;22.50;93.20
60909;DHT22;46780;48.128;-1.704;2022-08-19T12:43:52;22.50;92.70
60909;DHT22;46780;48.128;-1.704;2022-08-19T12:46:20;22.60;92.80
60909;DHT22;46780;48.128;-1.704;2022-08-19T12:48:47;22.70;92.60
60909;DHT22;46780;48.128;-1.704;2022-08-19T12:51:16;22.70;92.20
60909;DHT22;46780;48.128;-1.704;2022-08-19T12:53:43;22.70;92.30
60909;DHT22;46780;48.128;-1.704;2022-08-19T12:56:11;22.70;92.30
60909;DHT22;46780;48.128;-1.704;2022-08-19T12:58:38;22.70;92.40
60909;DHT22;46780;48.128;-1.704;2022-08-19T13:01:10;22.80;92.60
60909;DHT22;46780;48.128;-1.704;2022-08-19T13:03:38;22.70;91.90
60909;DHT22;46780;48.128;-1.704;2022-08-19T13:06:05;22.80;90.90
60909;DHT22;46780;48.128;-1.704;2022-08-19T13:08:31;22.70;90.40
60909;DHT22;46780;48.128;-1.704;2022-08-19T13:11:07;22.60;90.10
60909;DHT22;46780;48.128;-1.704;2022-08-19T13:13:34;22.70;89.40
60909;DHT22;46780;48.128;-1.704;2022-08-19T13:16:00;22.60;89.70
60909;DHT22;46780;48.128;-1.704;2022-08-19T13:18:27;22.60;89.50
60909;DHT22;46780;48.128;-1.704;2022-08-19T13:20:55;22.50;89.20
60909;DHT22;46780;48.128;-1.704;2022-08-19T13:23:21;22.60;89.40
60909;DHT22;46780;48.128;-1.704;2022-08-19T13:25:56;22.60;89.40
60909;DHT22;46780;48.128;-1.704;2022-08-19T13:28:22;22.80;89.10
60909;DHT22;46780;48.128;-1.704;2022-08-19T13:30:49;22.70;89.10
60909;DHT22;46780;48.128;-1.704;2022-08-19T13:33:15;22.80;88.30
60909;DHT22;46780;48.128;-1.704;2022-08-19T13:35:45;22.80;88.10
60909;DHT22;46780;48.128;-1.704;2022-08-19T13:38:14;22.80;87.70
60909;DHT22;46780;48.128;-1.704;2022-08-19T13:40:42;22.80;87.80
60909;DHT22;46780;48.128;-1.704;2022-08-19T13:43:09;22.90;88.10
60909;DHT22;46780;48.128;-1.704;2022-08-19T13:45:35;22.90;87.60
60909;DHT22;46780;48.128;-1.704;2022-08-19T13:48:04;22.90;87.40
60909;DHT22;46780;48.128;-1.704;2022-08-19T13:50:31;22.90;87.40
60909;DHT22;46780;48.128;-1.704;2022-08-19T13:52:58;22.90;87.90
60909;DHT22;46780;48.128;-1.704;2022-08-19T13:55:27;22.80;88.50
60909;DHT22;46780;48.128;-1.704;2022-08-19T13:57:55;22.80;89.20
60909;DHT22;46780;48.128;-1.704;2022-08-19T14:00:23;22.70;90.10
60909;DHT22;46780;48.128;-1.704;2022-08-19T14:02:53;22.70;90.50
60909;DHT22;46780;48.128;-1.704;2022-08-19T14:05:20;22.70;90.80
60909;DHT22;46780;48.128;-1.704;2022-08-19T14:07:47;22.60;91.10
60909;DHT22;46780;48.128;-1.704;2022-08-19T14:10:15;22.50;91.40
60909;DHT22;46780;48.128;-1.704;2022-08-19T14:12:43;22.50;91.60
60909;DHT22;46780;48.128;-1.704;2022-08-19T14:15:11;22.50;91.90
60909;DHT22;46780;48.128;-1.704;2022-08-19T14:17:38;22.40;92.10
60909;DHT22;46780;48.128;-1.704;2022-08-19T14:20:07;22.40;92.20
60909;DHT22;46780;48.128;-1.704;2022-08-19T14:22:35;22.40;92.20
60909;DHT22;46780;48.128;-1.704;2022-08-19T14:25:03;22.40;92.30
60909;DHT22;46780;48.128;-1.704;2022-08-19T14:27:29;22.40;92.80
60909;DHT22;46780;48.128;-1.704;2022-08-19T14:29:57;22.40;92.60
60909;DHT22;46780;48.128;-1.704;2022-08-19T14:32:23;22.30;92.60
60909;DHT22;46780;48.128;-1.704;2022-08-19T14:34:50;22.30;92.80
60909;DHT22;46780;48.128;-1.704;2022-08-19T14:37:16;22.40;93.30
60909;DHT22;46780;48.128;-1.704;2022-08-19T14:39:43;22.30;92.80
60909;DHT22;46780;48.128;-1.704;2022-08-19T14:42:10;22.30;92.90
60909;DHT22;46780;48.128;-1.704;2022-08-19T14:44:37;22.20;92.70
60909;DHT22;46780;48.128;-1.704;2022-08-19T14:47:05;22.20;92.50
60909;DHT22;46780;48.128;-1.704;2022-08-19T14:49:32;22.20;92.70
60909;DHT22;46780;48.128;-1.704;2022-08-19T14:51:58;22.20;92.60
60909;DHT22;46780;48.128;-1.704;2022-08-19T14:54:25;22.10;92.80
60909;DHT22;46780;48.128;-1.704;2022-08-19T14:56:51;22.10;92.70
60909;DHT22;46780;48.128;-1.704;2022-08-19T14:59:18;22.10;92.80
60909;DHT22;46780;48.128;-1.704;2022-08-19T15:01:45;22.00;92.80
60909;DHT22;46780;48.128;-1.704;2022-08-19T15:04:13;22.00;92.60
60909;DHT22;46780;48.128;-1.704;2022-08-19T15:06:39;22.00;92.30
60909;DHT22;46780;48.128;-1.704;2022-08-19T15:09:06;22.00;92.20
60909;DHT22;46780;48.128;-1.704;2022-08-19T15:11:32;22.30;92.60
60909;DHT22;46780;48.128;-1.704;2022-08-19T15:13:59;22.00;92.10
60909;DHT22;46780;48.128;-1.704;2022-08-19T15:16:26;22.00;92.30